aussportsbetting.com alexa rank chart, aussportsbetting.com alexa rank daily changes

aussportsbetting.com alexa rank chart, aussportsbetting.com alexa rank daily changes

aussportsbetting.com
Actual rank:
274 040

RANK HISTORY

Date Rank Diff
2017/07/22 274 040 -5 868
2017/07/21 279 908 +2 427
2017/07/20 277 481 +9 221
2017/07/19 268 260 +1 203
2017/07/18 267 057 -3 942
2017/07/17 270 999 -5 311
2017/07/16 276 310 -3 445
2017/07/15 279 755 -8 509
2017/07/14 288 264 -3 369
2017/07/13 291 633 +7 850
2017/07/12 283 783 +903
2017/07/11 282 880 -3 257
2017/07/10 286 137 -7 292
2017/07/09 293 429 +5 261
2017/07/08 288 168 -5 535
2017/07/07 293 703 -4 300
2017/07/06 298 003 -3 059
2017/07/05 301 062 -8 547
2017/07/04 309 609 +2 407
2017/07/03 307 202 +510
2017/07/02 306 692 -691
2017/07/01 307 383 -11 764
2017/06/30 319 147 -1 106
2017/06/29 320 253 -9 937
2017/06/28 330 190 -2 458
2017/06/27 332 648 +1 841
2017/06/26 330 807 -12 553
2017/06/25 343 360 +7 806
2017/06/24 335 554 -16 390
2017/06/23 351 944 -7 258
2017/06/22 359 202 +8 567
2017/06/21 350 635 +5 364
2017/06/20 345 271 -11 345
2017/06/19 356 616 -2 754
2017/06/18 359 370 +6 549
2017/06/17 352 821 +4 784
2017/06/16 348 037 -4 029
2017/06/15 352 066 +7 816
2017/06/14 344 250 -226
2017/06/13 344 476 -13 870
2017/06/12 358 346 +10 547
2017/06/11 347 799 -3 040
2017/06/10 350 839 +6 665
2017/06/09 344 174 -1 555
2017/06/08 345 729 +4 996
2017/06/07 340 733 +8 916
2017/06/06 331 817 +7 706
2017/06/05 324 111 +1 413
2017/06/04 322 698 +4 256
2017/06/03 318 442 +6 987
2017/06/02 311 455 +8 321
2017/06/01 303 134 +8 068
2017/05/31 295 066 +2 885
2017/05/30 292 181 -1 644
2017/05/29 293 825 +2 585
2017/05/28 291 240 -4 165
2017/05/27 295 405 -828
2017/05/26 296 233 +1 281
2017/05/25 294 952 -4 204
2017/05/24 299 156 +602
2017/05/23 298 554

WIDGET FOR YOUR SITE

DOMAINS WITH THE NEAREST RANK

Domain Rank
zts.com.cn 274 035
azhyipmonitor.com 274 036
cenotavr-tm.com 274 037
speedlancer.com 274 038
sensaklub.hr 274 039
aussportsbetting.com 274 040
mobiline24.com 274 041
diycozyhome.com 274 042
thesunmagazine.org 274 043
livefistdefence.com 274 044
csvape.com 274 045

DOMAINS WITH THE NEAREST RANK BY TLD .com

Domain Rank
silencertalk.com 274 032
loveheartbeat.com 274 033
azhyipmonitor.com 274 036
cenotavr-tm.com 274 037
speedlancer.com 274 038
aussportsbetting.com 274 040
mobiline24.com 274 041
diycozyhome.com 274 042
livefistdefence.com 274 044
csvape.com 274 045
prettylightsmusic.com 274 047